createdAt,value
2023-08-06T00:00:41.089Z,14.41
2023-08-06T00:01:41.692Z,14.38
2023-08-06T00:02:42.212Z,14.41
2023-08-06T00:03:43.158Z,14.42
2023-08-06T00:04:44.026Z,14.42
2023-08-06T00:05:44.894Z,14.48
2023-08-06T00:06:45.772Z,14.52
2023-08-06T00:07:46.671Z,14.54
2023-08-06T00:08:47.524Z,14.57
2023-08-06T00:09:48.402Z,14.57
2023-08-06T00:10:49.261Z,14.57
2023-08-06T00:11:50.609Z,14.60
2023-08-06T00:12:51.098Z,14.64
2023-08-06T00:13:51.964Z,14.67
2023-08-06T00:14:52.839Z,14.67
2023-08-06T00:15:53.706Z,14.63
2023-08-06T00:16:54.638Z,14.56
2023-08-06T00:17:55.543Z,14.56
2023-08-06T00:18:56.267Z,14.59
2023-08-06T00:19:56.599Z,14.61
2023-08-06T00:20:57.469Z,14.66
2023-08-06T00:21:58.374Z,14.67
2023-08-06T00:22:59.300Z,14.71
2023-08-06T00:24:00.185Z,14.67
2023-08-06T00:25:01.089Z,14.72
2023-08-06T00:26:01.974Z,14.79
2023-08-06T00:27:02.832Z,14.83
2023-08-06T00:28:03.704Z,14.90
2023-08-06T00:29:04.571Z,14.93
2023-08-06T00:30:05.446Z,14.93
2023-08-06T00:31:06.336Z,14.90
2023-08-06T00:32:07.240Z,14.90
2023-08-06T00:33:08.187Z,14.91
2023-08-06T00:34:09.031Z,14.87
2023-08-06T00:35:09.904Z,14.90
2023-08-06T00:36:10.770Z,14.87
2023-08-06T00:37:11.652Z,14.87
2023-08-06T00:38:12.589Z,14.86
2023-08-06T00:39:13.445Z,14.82
2023-08-06T00:40:14.340Z,14.85
2023-08-06T00:41:15.212Z,14.87
2023-08-06T00:42:16.068Z,14.90
2023-08-06T00:43:16.970Z,14.97
2023-08-06T00:44:17.855Z,14.93
2023-08-06T00:45:18.720Z,14.85
2023-08-06T00:46:19.593Z,14.86
2023-08-06T00:47:20.517Z,14.83
2023-08-06T00:48:21.404Z,14.79
2023-08-06T00:49:22.284Z,14.72
2023-08-06T00:50:23.133Z,14.71
2023-08-06T00:51:23.988Z,14.72
2023-08-06T00:52:24.918Z,14.75
2023-08-06T00:53:25.758Z,14.75
2023-08-06T00:54:26.622Z,14.78
2023-08-06T00:55:27.526Z,14.75
2023-08-06T00:56:28.358Z,14.80
2023-08-06T00:57:29.211Z,14.82
2023-08-06T00:58:30.080Z,14.85
2023-08-06T00:59:31.000Z,14.83
2023-08-06T01:00:31.902Z,14.86
2023-08-06T01:01:32.785Z,14.86
2023-08-06T01:02:33.788Z,14.85
2023-08-06T01:03:34.233Z,14.78
2023-08-06T01:04:35.122Z,14.78
2023-08-06T01:05:43.530Z,14.74
2023-08-06T01:06:36.766Z,14.79
2023-08-06T01:07:37.531Z,14.86
2023-08-06T01:08:38.291Z,14.85
2023-08-06T01:09:39.047Z,14.87
2023-08-06T01:10:40.009Z,14.86
2023-08-06T01:11:40.862Z,14.80
2023-08-06T01:12:41.724Z,14.78
2023-08-06T01:13:42.603Z,14.79
2023-08-06T01:14:43.460Z,14.78
2023-08-06T01:15:44.324Z,14.71
2023-08-06T01:16:45.265Z,14.75
2023-08-06T01:17:46.160Z,14.83
2023-08-06T01:18:46.997Z,14.82
2023-08-06T01:19:47.884Z,14.79
2023-08-06T01:20:48.731Z,14.83
2023-08-06T01:21:49.721Z,14.82
2023-08-06T01:22:50.160Z,14.82
2023-08-06T01:23:51.030Z,14.79
2023-08-06T01:24:51.882Z,14.74
2023-08-06T01:25:52.750Z,14.69
2023-08-06T01:26:53.717Z,14.66
2023-08-06T01:27:54.594Z,14.60
2023-08-06T01:28:55.485Z,14.64
2023-08-06T01:29:56.340Z,14.59
2023-08-06T01:30:57.203Z,14.71
2023-08-06T01:31:58.068Z,14.67
2023-08-06T01:32:59.006Z,14.67
2023-08-06T01:33:59.904Z,14.67
2023-08-06T01:35:00.798Z,14.72
2023-08-06T01:36:01.652Z,14.78
2023-08-06T01:37:02.507Z,14.79
2023-08-06T01:38:03.385Z,14.83
2023-08-06T01:39:04.279Z,14.90
2023-08-06T01:40:05.156Z,14.87
2023-08-06T01:41:06.002Z,14.91
2023-08-06T01:42:06.878Z,14.91
2023-08-06T01:43:07.745Z,14.91
2023-08-06T01:44:08.628Z,14.97
2023-08-06T01:45:09.536Z,14.95
2023-08-06T01:46:10.533Z,14.91
2023-08-06T01:47:11.397Z,14.86
2023-08-06T01:48:12.265Z,14.91
2023-08-06T01:49:13.153Z,14.93
2023-08-06T01:50:14.017Z,14.97
2023-08-06T01:51:14.889Z,15.00
2023-08-06T01:52:15.780Z,15.00
2023-08-06T01:53:16.646Z,14.97
2023-08-06T01:54:17.516Z,14.93
2023-08-06T01:55:18.392Z,14.94
2023-08-06T01:56:19.297Z,14.87
2023-08-06T01:57:20.134Z,14.91
2023-08-06T01:58:21.006Z,14.95
2023-08-06T01:59:21.896Z,14.91
2023-08-06T02:00:22.766Z,15.00
2023-08-06T02:01:23.659Z,15.03
2023-08-06T02:02:24.596Z,15.04
2023-08-06T02:03:25.427Z,15.04
2023-08-06T02:04:26.425Z,14.98
2023-08-06T02:05:26.824Z,14.97
2023-08-06T02:06:27.668Z,14.98
2023-08-06T02:07:28.541Z,15.03
2023-08-06T02:08:29.407Z,15.03
2023-08-06T02:09:30.316Z,15.05
2023-08-06T02:10:31.175Z,15.09
2023-08-06T02:11:32.052Z,15.11
2023-08-06T02:12:32.919Z,15.09
2023-08-06T02:13:33.802Z,15.11
2023-08-06T02:14:34.690Z,15.03
2023-08-06T02:15:35.611Z,15.03
2023-08-06T02:16:36.450Z,15.01
2023-08-06T02:17:37.325Z,14.95
2023-08-06T02:18:38.198Z,14.94
2023-08-06T02:19:39.078Z,14.95
2023-08-06T02:20:39.980Z,14.94
2023-08-06T02:21:40.833Z,14.95
2023-08-06T02:22:41.719Z,14.95
2023-08-06T02:23:42.646Z,14.95
2023-08-06T02:24:43.463Z,14.94
2023-08-06T02:25:44.331Z,14.98
2023-08-06T02:26:45.240Z,14.97
2023-08-06T02:27:46.091Z,14.97
2023-08-06T02:28:46.966Z,14.97
2023-08-06T02:29:47.832Z,15.00
2023-08-06T02:30:48.710Z,14.98
2023-08-06T02:31:49.628Z,14.97
2023-08-06T02:32:50.560Z,14.90
2023-08-06T02:33:51.431Z,14.93
2023-08-06T02:34:52.292Z,14.95
2023-08-06T02:35:53.191Z,14.93
2023-08-06T02:36:54.025Z,14.90
2023-08-06T02:37:54.893Z,14.91
2023-08-06T02:38:55.775Z,14.97
2023-08-06T02:39:56.650Z,15.04
2023-08-06T02:40:57.534Z,15.09
2023-08-06T02:41:58.406Z,15.04
2023-08-06T02:42:59.262Z,15.05
2023-08-06T02:44:00.127Z,15.07
2023-08-06T02:45:00.997Z,15.00
2023-08-06T02:46:01.990Z,15.05
2023-08-06T02:47:02.409Z,15.05
2023-08-06T02:48:03.309Z,15.01
2023-08-06T02:49:04.148Z,14.93
2023-08-06T02:50:05.024Z,14.93
2023-08-06T02:51:05.925Z,14.95
2023-08-06T02:52:06.770Z,14.94
2023-08-06T02:53:07.643Z,15.00
2023-08-06T02:54:08.522Z,15.03
2023-08-06T02:55:09.377Z,15.04
2023-08-06T02:56:10.268Z,15.05
2023-08-06T02:57:11.139Z,15.01
2023-08-06T02:58:11.994Z,14.95
2023-08-06T02:59:12.869Z,14.98
2023-08-06T03:00:13.765Z,15.00
2023-08-06T03:01:14.646Z,15.11
2023-08-06T03:02:15.520Z,15.11
2023-08-06T03:03:16.393Z,15.05
2023-08-06T03:04:17.321Z,15.01
2023-08-06T03:05:18.207Z,15.05
2023-08-06T03:06:19.124Z,15.07
2023-08-06T03:07:19.958Z,15.13
2023-08-06T03:08:20.841Z,15.19
2023-08-06T03:09:21.706Z,15.19
2023-08-06T03:10:22.568Z,15.23
2023-08-06T03:11:23.437Z,15.25
2023-08-06T03:12:24.318Z,15.28
2023-08-06T03:13:25.214Z,15.23
2023-08-06T03:14:26.060Z,15.20
2023-08-06T03:15:26.939Z,15.16
2023-08-06T03:16:27.877Z,15.15
2023-08-06T03:17:28.715Z,15.15
2023-08-06T03:18:29.575Z,15.16
2023-08-06T03:19:30.453Z,15.09
2023-08-06T03:20:31.303Z,15.00
2023-08-06T03:21:32.183Z,14.98
2023-08-06T03:22:33.035Z,15.01
2023-08-06T03:23:33.928Z,15.04
2023-08-06T03:24:34.792Z,15.05
2023-08-06T03:25:35.705Z,15.04
2023-08-06T03:26:36.550Z,15.01
2023-08-06T03:27:37.415Z,15.03
2023-08-06T03:28:38.320Z,15.00
2023-08-06T03:29:39.229Z,15.03
2023-08-06T03:30:40.163Z,15.04
2023-08-06T03:31:40.656Z,15.01
2023-08-06T03:32:41.534Z,15.04
2023-08-06T03:33:42.400Z,15.05
2023-08-06T03:34:43.259Z,15.05
2023-08-06T03:35:44.129Z,14.97
2023-08-06T03:36:45.014Z,14.98
2023-08-06T03:37:45.881Z,15.00
2023-08-06T03:38:46.734Z,15.00
2023-08-06T03:39:47.605Z,15.04
2023-08-06T03:40:48.476Z,15.00
2023-08-06T03:41:49.376Z,15.05
2023-08-06T03:42:50.256Z,15.09
2023-08-06T03:43:51.141Z,15.11
2023-08-06T03:44:51.994Z,15.12
2023-08-06T03:45:52.874Z,15.11
2023-08-06T03:46:53.798Z,15.11
2023-08-06T03:47:54.724Z,15.09
2023-08-06T03:48:55.565Z,15.13
2023-08-06T03:49:56.452Z,15.09
2023-08-06T03:50:57.321Z,14.98
2023-08-06T03:51:58.204Z,14.95
2023-08-06T03:52:59.072Z,14.98
2023-08-06T03:53:59.936Z,15.05
2023-08-06T03:55:00.815Z,15.00
2023-08-06T03:56:01.688Z,14.98
2023-08-06T03:57:02.549Z,15.00
2023-08-06T03:58:03.426Z,15.07
2023-08-06T03:59:04.363Z,15.09
2023-08-06T04:00:05.217Z,15.15
2023-08-06T04:01:06.119Z,15.09
2023-08-06T04:02:06.970Z,15.15
2023-08-06T04:03:07.992Z,15.20
2023-08-06T04:04:08.353Z,15.23
2023-08-06T04:05:09.220Z,15.25
2023-08-06T04:06:10.098Z,15.25
2023-08-06T04:07:10.973Z,15.23
2023-08-06T04:08:11.844Z,15.23
2023-08-06T04:09:12.702Z,15.19
2023-08-06T04:10:13.581Z,15.16
2023-08-06T04:11:14.443Z,15.16
2023-08-06T04:12:15.303Z,15.15
2023-08-06T04:13:16.191Z,15.19
2023-08-06T04:14:17.082Z,15.27
2023-08-06T04:15:17.948Z,15.25
2023-08-06T04:16:18.903Z,15.19
2023-08-06T04:17:19.748Z,15.03
2023-08-06T04:18:20.623Z,15.03
2023-08-06T04:19:21.502Z,15.04
2023-08-06T04:20:22.361Z,15.11
2023-08-06T04:21:23.259Z,15.16
2023-08-06T04:22:24.132Z,15.20
2023-08-06T04:23:24.972Z,15.11
2023-08-06T04:24:25.836Z,15.03
2023-08-06T04:25:26.700Z,15.05
2023-08-06T04:26:27.579Z,15.11
2023-08-06T04:27:28.507Z,15.11
2023-08-06T04:28:29.320Z,15.15
2023-08-06T04:29:30.184Z,15.13
2023-08-06T04:30:31.061Z,15.13
2023-08-06T04:31:31.934Z,15.19
2023-08-06T04:32:32.836Z,15.16
2023-08-06T04:33:33.691Z,15.18
2023-08-06T04:34:34.551Z,15.27
2023-08-06T04:35:35.461Z,15.31
2023-08-06T04:36:36.371Z,15.33
2023-08-06T04:37:37.272Z,15.34
2023-08-06T04:38:38.144Z,15.37
2023-08-06T04:39:39.005Z,15.31
2023-08-06T04:40:39.860Z,15.25
2023-08-06T04:41:40.731Z,15.23
2023-08-06T04:42:41.594Z,15.28
2023-08-06T04:43:42.468Z,15.33
2023-08-06T04:44:43.332Z,15.35
2023-08-06T04:45:44.255Z,15.41
2023-08-06T04:46:45.102Z,15.46
2023-08-06T04:47:46.037Z,15.52
2023-08-06T04:48:46.864Z,15.53
2023-08-06T04:49:47.750Z,15.62
2023-08-06T04:50:48.609Z,15.68
2023-08-06T04:51:49.516Z,15.71
2023-08-06T04:52:50.368Z,15.66
2023-08-06T04:53:51.227Z,15.62
2023-08-06T04:54:52.118Z,15.67
2023-08-06T04:55:52.988Z,15.74
2023-08-06T04:56:53.868Z,15.80
2023-08-06T04:57:54.734Z,15.81
2023-08-06T04:58:55.595Z,15.89
2023-08-06T04:59:56.484Z,15.92
2023-08-06T05:00:57.357Z,16.03
2023-08-06T05:01:58.324Z,16.08
2023-08-06T05:02:59.246Z,16.04
2023-08-06T05:04:00.182Z,16.06
2023-08-06T05:05:01.085Z,16.13
2023-08-06T05:06:01.940Z,16.18
2023-08-06T05:07:02.829Z,16.26
2023-08-06T05:08:03.702Z,16.26
2023-08-06T05:09:04.594Z,16.29
2023-08-06T05:10:05.453Z,16.30
2023-08-06T05:11:06.317Z,16.29
2023-08-06T05:12:07.208Z,16.17
2023-08-06T05:13:08.088Z,16.16
2023-08-06T05:14:08.950Z,16.18
2023-08-06T05:15:09.820Z,16.16
2023-08-06T05:16:10.746Z,16.10
2023-08-06T05:17:11.596Z,16.03
2023-08-06T05:18:12.468Z,15.99
2023-08-06T05:19:13.357Z,16.07
2023-08-06T05:20:14.208Z,16.13
2023-08-06T05:21:15.076Z,16.11
2023-08-06T05:22:15.945Z,16.18
2023-08-06T05:23:16.842Z,16.06
2023-08-06T05:24:17.709Z,16.07
2023-08-06T05:25:18.579Z,16.04
2023-08-06T05:26:19.498Z,16.08
2023-08-06T05:27:20.323Z,16.03
2023-08-06T05:28:21.214Z,15.98
2023-08-06T05:29:22.083Z,15.85
2023-08-06T05:30:22.948Z,15.84
2023-08-06T05:31:23.830Z,15.74
2023-08-06T05:32:24.778Z,15.77
2023-08-06T05:33:25.217Z,15.74
2023-08-06T05:34:26.117Z,15.73
2023-08-06T05:35:26.976Z,15.74
2023-08-06T05:36:29.901Z,15.73
2023-08-06T05:37:28.519Z,15.77
2023-08-06T05:38:29.402Z,15.88
2023-08-06T05:39:30.255Z,15.93
2023-08-06T05:40:31.109Z,15.91
2023-08-06T05:41:31.994Z,15.92
2023-08-06T05:42:32.869Z,15.89
2023-08-06T05:43:33.735Z,15.88
2023-08-06T05:44:34.608Z,15.81
2023-08-06T05:45:35.501Z,15.77
2023-08-06T05:46:36.364Z,15.78
2023-08-06T05:47:37.237Z,15.78
2023-08-06T05:48:38.096Z,15.80
2023-08-06T05:49:38.986Z,15.88
2023-08-06T05:50:39.854Z,16.65
2023-08-06T05:51:40.784Z,17.47
2023-08-06T05:52:41.667Z,17.92
2023-08-06T05:53:42.550Z,17.30
2023-08-06T05:54:43.395Z,17.02
2023-08-06T05:55:44.274Z,17.21
2023-08-06T05:56:45.143Z,17.86
2023-08-06T05:57:46.027Z,18.51
2023-08-06T05:58:46.913Z,18.96
2023-08-06T05:59:47.779Z,18.83
2023-08-06T06:00:48.643Z,18.94
2023-08-06T06:01:49.535Z,19.30
2023-08-06T06:02:50.432Z,19.25
2023-08-06T06:03:51.335Z,18.76
2023-08-06T06:04:52.213Z,18.74
2023-08-06T06:05:53.070Z,18.38
2023-08-06T06:06:53.939Z,18.10
2023-08-06T06:07:54.804Z,17.89
2023-08-06T06:08:55.694Z,17.83
2023-08-06T06:09:56.563Z,17.70
2023-08-06T06:10:57.430Z,17.62
2023-08-06T06:11:58.301Z,17.66
2023-08-06T06:12:59.161Z,17.77
2023-08-06T06:14:00.045Z,17.92
2023-08-06T06:15:00.908Z,17.94
2023-08-06T06:16:01.799Z,17.99
2023-08-06T06:17:02.653Z,17.84
2023-08-06T06:18:03.661Z,17.76
2023-08-06T06:19:04.509Z,17.77
2023-08-06T06:20:05.532Z,18.13
2023-08-06T06:21:06.362Z,18.21
2023-08-06T06:22:07.235Z,18.05
2023-08-06T06:23:08.136Z,17.68
2023-08-06T06:24:09.008Z,17.27
2023-08-06T06:25:09.881Z,17.06
2023-08-06T06:26:10.728Z,17.18
2023-08-06T06:27:11.607Z,17.36
2023-08-06T06:28:12.490Z,17.46
2023-08-06T06:29:13.362Z,17.57
2023-08-06T06:30:14.253Z,17.76
2023-08-06T06:31:15.130Z,17.86
2023-08-06T06:32:16.012Z,18.02
2023-08-06T06:33:16.910Z,18.01
2023-08-06T06:34:17.769Z,17.66
2023-08-06T06:35:19.353Z,17.70
2023-08-06T06:36:19.197Z,17.96
2023-08-06T06:37:20.054Z,17.94
2023-08-06T06:38:20.938Z,18.57
2023-08-06T06:39:21.822Z,19.28
2023-08-06T06:40:22.703Z,19.76
2023-08-06T06:41:23.564Z,19.95
2023-08-06T06:42:24.447Z,19.13
2023-08-06T06:43:25.299Z,18.82
2023-08-06T06:44:26.183Z,18.68
2023-08-06T06:45:27.088Z,18.68
2023-08-06T06:46:27.936Z,18.76
2023-08-06T06:47:28.860Z,18.78
2023-08-06T06:48:29.793Z,18.82
2023-08-06T06:49:30.775Z,18.87
2023-08-06T06:50:31.612Z,18.86
2023-08-06T06:51:32.509Z,18.82
2023-08-06T06:52:33.353Z,18.09
2023-08-06T06:53:34.262Z,17.62
2023-08-06T06:54:35.117Z,17.54
2023-08-06T06:55:35.971Z,17.49
2023-08-06T06:56:36.835Z,17.40
2023-08-06T06:57:37.703Z,17.81
2023-08-06T06:58:38.584Z,17.73
2023-08-06T06:59:39.489Z,17.53
2023-08-06T07:00:40.306Z,17.47
2023-08-06T07:01:41.230Z,17.47
2023-08-06T07:02:42.129Z,17.57
2023-08-06T07:03:43.014Z,17.46
2023-08-06T07:04:43.862Z,17.45
2023-08-06T07:05:44.757Z,17.58
2023-08-06T07:06:45.592Z,17.25
2023-08-06T07:07:46.464Z,17.12
2023-08-06T07:08:47.338Z,17.03
2023-08-06T07:09:48.261Z,16.99
2023-08-06T07:10:49.093Z,17.18
2023-08-06T07:11:49.968Z,17.25
2023-08-06T07:12:50.860Z,17.39
2023-08-06T07:13:51.746Z,17.40
2023-08-06T07:14:52.600Z,17.55
2023-08-06T07:15:53.470Z,17.68
2023-08-06T07:16:54.388Z,17.79
2023-08-06T07:17:55.304Z,17.51
2023-08-06T07:18:56.167Z,17.36
2023-08-06T07:19:57.041Z,17.32
2023-08-06T07:20:57.925Z,17.42
2023-08-06T07:21:58.853Z,17.42
2023-08-06T07:22:59.665Z,17.33
2023-08-06T07:24:00.584Z,17.47
2023-08-06T07:25:01.473Z,17.77
2023-08-06T07:26:02.318Z,18.23
2023-08-06T07:27:03.197Z,18.65
2023-08-06T07:28:04.052Z,18.93
2023-08-06T07:29:04.929Z,19.49
2023-08-06T07:30:05.789Z,21.08
2023-08-06T07:31:09.269Z,21.70
2023-08-06T07:32:07.369Z,21.40
2023-08-06T07:33:08.229Z,21.85
2023-08-06T07:34:09.119Z,21.48
2023-08-06T07:35:10.002Z,21.27
2023-08-06T07:36:10.972Z,21.96
2023-08-06T07:37:11.863Z,21.73
2023-08-06T07:38:12.743Z,21.82
2023-08-06T07:39:13.617Z,21.67
2023-08-06T07:40:14.495Z,21.26
2023-08-06T07:41:15.412Z,20.72
2023-08-06T07:42:16.277Z,21.11
2023-08-06T07:43:17.143Z,21.31
2023-08-06T07:44:18.036Z,21.46
2023-08-06T07:45:18.907Z,22.19
2023-08-06T07:46:20.049Z,22.67
2023-08-06T07:47:20.419Z,22.76
2023-08-06T07:48:21.301Z,23.16
2023-08-06T07:49:22.163Z,22.67
2023-08-06T07:50:23.144Z,22.08
2023-08-06T07:51:24.012Z,21.66
2023-08-06T07:52:24.868Z,22.05
2023-08-06T07:53:25.738Z,21.85
2023-08-06T07:54:26.597Z,21.61
2023-08-06T07:55:27.507Z,21.56
2023-08-06T07:56:28.370Z,21.83
2023-08-06T07:57:29.247Z,22.23
2023-08-06T07:58:30.116Z,22.30
2023-08-06T07:59:30.982Z,22.36
2023-08-06T08:00:31.871Z,22.78
2023-08-06T08:01:32.741Z,22.81
2023-08-06T08:02:33.611Z,22.99
2023-08-06T08:03:34.561Z,23.16
2023-08-06T08:04:34.987Z,23.14
2023-08-06T08:05:35.842Z,22.94
2023-08-06T08:06:36.723Z,22.48
2023-08-06T08:07:37.594Z,22.56
2023-08-06T08:08:38.478Z,22.08
2023-08-06T08:09:39.346Z,21.90
2023-08-06T08:10:40.241Z,22.06
2023-08-06T08:11:41.093Z,22.35
2023-08-06T08:12:41.974Z,22.57
2023-08-06T08:13:42.837Z,23.06
2023-08-06T08:14:43.709Z,23.31
2023-08-06T08:15:44.597Z,23.75
2023-08-06T08:16:45.556Z,24.49
2023-08-06T08:17:46.464Z,24.55
2023-08-06T08:18:47.314Z,24.49
2023-08-06T08:19:48.190Z,23.94
2023-08-06T08:20:49.059Z,23.45
2023-08-06T08:21:49.917Z,23.31
2023-08-06T08:22:50.839Z,23.18
2023-08-06T08:23:51.694Z,22.94
2023-08-06T08:24:52.579Z,22.64
2023-08-06T08:25:53.452Z,22.57
2023-08-06T08:26:54.314Z,22.66
2023-08-06T08:27:55.198Z,22.88
2023-08-06T08:28:56.085Z,23.68
2023-08-06T08:29:57.056Z,24.87
2023-08-06T08:30:57.929Z,25.74
2023-08-06T08:31:58.873Z,25.74
2023-08-06T08:32:59.777Z,25.96
2023-08-06T08:34:00.657Z,26.34
2023-08-06T08:35:01.525Z,26.09
2023-08-06T08:36:02.392Z,25.71
2023-08-06T08:37:03.267Z,26.28
2023-08-06T08:38:04.147Z,25.83
2023-08-06T08:39:05.041Z,25.16
2023-08-06T08:40:05.904Z,24.02
2023-08-06T08:41:06.837Z,23.07
2023-08-06T08:42:07.679Z,23.23
2023-08-06T08:43:08.542Z,22.89
2023-08-06T08:44:09.407Z,22.61
2023-08-06T08:45:10.286Z,22.35
2023-08-06T08:46:11.168Z,22.42
2023-08-06T08:47:12.133Z,22.60
2023-08-06T08:48:13.116Z,22.69
2023-08-06T08:49:14.016Z,22.84
2023-08-06T08:50:14.959Z,23.00
2023-08-06T08:51:15.777Z,22.94
2023-08-06T08:52:16.650Z,22.81
2023-08-06T08:53:17.510Z,22.59
2023-08-06T08:54:18.388Z,22.63
2023-08-06T08:55:19.255Z,22.57
2023-08-06T08:56:20.162Z,22.59
2023-08-06T08:57:21.021Z,22.12
2023-08-06T08:58:21.886Z,21.46
2023-08-06T08:59:22.792Z,21.12
2023-08-06T09:00:23.705Z,21.01
2023-08-06T09:01:24.699Z,21.12
2023-08-06T09:02:25.209Z,21.26
2023-08-06T09:03:25.567Z,21.45
2023-08-06T09:04:26.440Z,21.70
2023-08-06T09:05:27.419Z,21.82
2023-08-06T09:06:28.261Z,21.86
2023-08-06T09:07:29.138Z,21.85
2023-08-06T09:08:30.021Z,21.93
2023-08-06T09:09:30.880Z,22.06
2023-08-06T09:10:31.754Z,22.19
2023-08-06T09:11:32.693Z,22.19
2023-08-06T09:12:33.538Z,22.30
2023-08-06T09:13:34.395Z,22.12
2023-08-06T09:14:35.308Z,22.29
2023-08-06T09:15:36.194Z,22.63
2023-08-06T09:16:37.165Z,22.69
2023-08-06T09:17:37.696Z,22.69
2023-08-06T09:18:38.572Z,22.69
2023-08-06T09:19:39.428Z,22.81
2023-08-06T09:20:40.346Z,23.90
2023-08-06T09:21:41.216Z,24.66
2023-08-06T09:22:42.075Z,24.93
2023-08-06T09:23:42.934Z,24.52
2023-08-06T09:24:43.464Z,24.24
2023-08-06T09:25:44.330Z,24.44
2023-08-06T09:26:45.262Z,24.71
2023-08-06T09:27:46.095Z,24.86
2023-08-06T09:28:46.993Z,25.02
2023-08-06T09:29:47.828Z,25.12
2023-08-06T09:30:48.785Z,24.93
2023-08-06T09:31:49.652Z,24.67
2023-08-06T09:32:50.524Z,24.41
2023-08-06T09:33:51.402Z,24.21
2023-08-06T09:34:52.280Z,24.23
2023-08-06T09:35:53.137Z,24.89
2023-08-06T09:36:54.016Z,25.17
2023-08-06T09:37:54.885Z,26.03
2023-08-06T09:38:55.753Z,26.54
2023-08-06T09:39:56.628Z,26.47
2023-08-06T09:40:57.503Z,26.59
2023-08-06T09:41:58.426Z,27.09
2023-08-06T09:42:59.287Z,26.86
2023-08-06T09:44:00.174Z,26.28
2023-08-06T09:45:01.040Z,25.74
2023-08-06T09:46:01.942Z,25.49
2023-08-06T09:47:02.798Z,26.78
2023-08-06T09:48:03.706Z,27.25
2023-08-06T09:49:04.567Z,26.32
2023-08-06T09:50:05.433Z,25.60
2023-08-06T09:51:06.296Z,24.99
2023-08-06T09:52:07.188Z,24.59
2023-08-06T09:53:08.060Z,24.37
2023-08-06T09:54:17.167Z,24.18
2023-08-06T09:55:10.712Z,23.99
2023-08-06T09:56:10.563Z,23.96
2023-08-06T09:57:11.453Z,23.71
2023-08-06T09:58:12.325Z,23.53
2023-08-06T09:59:13.213Z,23.29
2023-08-06T10:00:14.111Z,23.11
2023-08-06T10:01:15.023Z,22.91
2023-08-06T10:02:15.922Z,22.84
2023-08-06T10:03:16.909Z,22.88
2023-08-06T10:04:23.625Z,22.89
2023-08-06T10:05:19.074Z,22.94
2023-08-06T10:06:18.964Z,22.88
2023-08-06T10:07:19.817Z,22.94
2023-08-06T10:08:20.691Z,22.89
2023-08-06T10:09:21.703Z,22.81
2023-08-06T10:10:22.560Z,22.67
2023-08-06T10:11:23.428Z,22.44
2023-08-06T10:12:24.321Z,22.30
2023-08-06T10:13:25.196Z,22.19
2023-08-06T10:14:26.040Z,22.09
2023-08-06T10:15:26.940Z,22.15
2023-08-06T10:16:27.854Z,22.09
2023-08-06T10:17:41.194Z,21.96
2023-08-06T10:18:30.492Z,21.90
2023-08-06T10:19:30.332Z,21.79
2023-08-06T10:20:31.375Z,21.83
2023-08-06T10:21:31.723Z,21.81
2023-08-06T10:22:32.605Z,21.73
2023-08-06T10:23:33.463Z,21.75
2023-08-06T10:24:34.332Z,21.75
2023-08-06T10:25:35.227Z,21.98
2023-08-06T10:26:36.437Z,22.23
2023-08-06T10:27:36.843Z,22.57
2023-08-06T10:28:37.680Z,22.81
2023-08-06T10:29:38.582Z,22.86
2023-08-06T10:30:39.417Z,23.39
2023-08-06T10:31:40.305Z,23.74
2023-08-06T10:32:41.246Z,23.68
2023-08-06T10:33:42.110Z,23.77
2023-08-06T10:34:42.965Z,23.89
2023-08-06T10:35:43.831Z,23.75
2023-08-06T10:36:44.703Z,23.87
2023-08-06T10:37:45.657Z,23.89
2023-08-06T10:38:46.484Z,23.54
2023-08-06T10:39:47.364Z,23.45
2023-08-06T10:40:48.215Z,23.41
2023-08-06T10:41:49.084Z,23.35
2023-08-06T10:42:49.990Z,23.52
2023-08-06T10:43:50.839Z,24.04
2023-08-06T10:44:51.708Z,24.68
2023-08-06T10:45:52.570Z,25.54
2023-08-06T10:46:53.492Z,26.68
2023-08-06T10:47:54.370Z,27.91
2023-08-06T10:48:55.242Z,29.02
2023-08-06T10:49:56.114Z,28.76
2023-08-06T10:50:56.974Z,27.83
2023-08-06T10:51:57.841Z,26.60
2023-08-06T10:52:58.722Z,25.74
2023-08-06T10:53:59.604Z,24.99
2023-08-06T10:55:00.489Z,24.74
2023-08-06T10:56:01.383Z,24.52
2023-08-06T10:57:02.241Z,24.60
2023-08-06T10:58:03.141Z,24.52
2023-08-06T10:59:03.975Z,24.53
2023-08-06T11:00:15.757Z,24.45
2023-08-06T11:01:06.798Z,24.33
2023-08-06T11:02:06.158Z,24.29
2023-08-06T11:03:07.092Z,24.42
2023-08-06T11:04:07.968Z,24.51
2023-08-06T11:05:08.843Z,24.33
2023-08-06T11:06:09.717Z,24.14
2023-08-06T11:07:10.693Z,23.92
2023-08-06T11:08:11.509Z,23.93
2023-08-06T11:09:12.385Z,23.97
2023-08-06T11:10:13.405Z,23.87
2023-08-06T11:11:13.831Z,23.81
2023-08-06T11:12:14.703Z,23.75
2023-08-06T11:13:15.587Z,23.56
2023-08-06T11:14:16.451Z,23.49
2023-08-06T11:15:17.320Z,23.52
2023-08-06T11:16:18.234Z,23.56
2023-08-06T11:17:19.067Z,23.69
2023-08-06T11:18:19.940Z,23.79
2023-08-06T11:19:20.937Z,23.92
2023-08-06T11:20:21.781Z,24.00
2023-08-06T11:21:22.657Z,24.12
2023-08-06T11:22:23.536Z,24.30
2023-08-06T11:23:24.400Z,24.48
2023-08-06T11:24:25.257Z,24.11
2023-08-06T11:25:26.146Z,24.24
2023-08-06T11:26:27.018Z,24.16
2023-08-06T11:27:27.897Z,24.08
2023-08-06T11:28:28.793Z,24.15
2023-08-06T11:29:29.684Z,24.14
2023-08-06T11:30:30.532Z,24.21
2023-08-06T11:31:31.428Z,24.14
2023-08-06T11:32:32.380Z,24.02
2023-08-06T11:33:33.239Z,23.81
2023-08-06T11:34:34.088Z,23.86
2023-08-06T11:35:34.970Z,23.81
2023-08-06T11:36:35.872Z,23.90
2023-08-06T11:37:36.753Z,23.87
2023-08-06T11:38:37.642Z,23.54
2023-08-06T11:39:38.490Z,23.32
2023-08-06T11:40:39.375Z,23.09
2023-08-06T11:41:40.250Z,23.07
2023-08-06T11:42:41.111Z,22.88
2023-08-06T11:43:42.002Z,22.81
2023-08-06T11:44:42.867Z,22.63
2023-08-06T11:45:43.783Z,22.61
2023-08-06T11:46:44.714Z,22.70
2023-08-06T11:47:45.623Z,22.93
2023-08-06T11:48:46.475Z,22.99
2023-08-06T11:49:47.360Z,23.29
2023-08-06T11:50:48.263Z,23.52
2023-08-06T11:51:49.090Z,24.02
2023-08-06T11:52:49.985Z,25.24
2023-08-06T11:53:50.935Z,25.78
2023-08-06T11:54:51.775Z,26.21
2023-08-06T11:55:52.651Z,26.66
2023-08-06T11:56:53.510Z,27.03
2023-08-06T11:57:54.410Z,27.09
2023-08-06T11:58:55.284Z,26.71
2023-08-06T11:59:56.151Z,26.83
2023-08-06T12:00:57.036Z,26.59
2023-08-06T12:01:58.281Z,26.93
2023-08-06T12:02:58.843Z,27.23
2023-08-06T12:03:59.749Z,27.25
2023-08-06T12:05:00.598Z,27.09
2023-08-06T12:06:01.478Z,27.33
2023-08-06T12:07:02.357Z,27.39
2023-08-06T12:08:03.237Z,28.01
2023-08-06T12:09:04.102Z,28.61
2023-08-06T12:10:04.975Z,28.45
2023-08-06T12:11:05.842Z,28.43
2023-08-06T12:12:06.706Z,28.40
2023-08-06T12:13:07.602Z,28.52
2023-08-06T12:14:08.481Z,28.55
2023-08-06T12:15:09.355Z,28.25
2023-08-06T12:16:10.228Z,27.84
2023-08-06T12:17:11.073Z,27.45
2023-08-06T12:18:12.076Z,26.60
2023-08-06T12:19:12.890Z,26.68
2023-08-06T12:20:13.772Z,26.61
2023-08-06T12:21:14.651Z,26.31
2023-08-06T12:22:15.512Z,26.09
2023-08-06T12:23:16.399Z,25.63
2023-08-06T12:24:17.268Z,25.49
2023-08-06T12:25:18.251Z,25.30
2023-08-06T12:26:19.110Z,25.08
2023-08-06T12:27:19.969Z,25.01
2023-08-06T12:28:22.939Z,24.84
2023-08-06T12:29:21.476Z,24.92
2023-08-06T12:30:22.350Z,24.89
2023-08-06T12:31:23.198Z,24.66
2023-08-06T12:32:24.115Z,24.49
2023-08-06T12:33:24.966Z,24.41
2023-08-06T12:34:27.459Z,24.49
2023-08-06T12:35:26.634Z,24.42
2023-08-06T12:36:27.468Z,24.24
2023-08-06T12:37:28.334Z,24.11
2023-08-06T12:38:29.232Z,24.12
2023-08-06T12:39:30.085Z,24.19
2023-08-06T12:40:37.693Z,24.04
2023-08-06T12:41:32.714Z,23.99
2023-08-06T12:42:32.575Z,23.89
2023-08-06T12:43:33.466Z,23.93
2023-08-06T12:44:34.372Z,23.94
2023-08-06T12:45:35.207Z,24.05
2023-08-06T12:46:36.099Z,24.11
2023-08-06T12:47:37.068Z,23.97
2023-08-06T12:48:37.925Z,23.92
2023-08-06T12:49:38.808Z,23.81
2023-08-06T12:50:39.677Z,23.89
2023-08-06T12:51:40.539Z,23.93
2023-08-06T12:52:41.405Z,23.99
2023-08-06T12:53:42.283Z,24.11
2023-08-06T12:54:43.231Z,24.14
2023-08-06T12:55:44.073Z,24.26
2023-08-06T12:56:44.993Z,24.24
2023-08-06T12:57:56.916Z,24.34
2023-08-06T12:58:47.605Z,24.08
2023-08-06T12:59:47.481Z,24.16
2023-08-06T13:00:48.339Z,24.08
2023-08-06T13:01:49.321Z,24.19
2023-08-06T13:02:49.837Z,24.34
2023-08-06T13:03:50.375Z,24.31